Time;durP1;ratioP1;P1;durP2;ratioP2;P2;SDS_P1;SDS_P2;PMS_P1;PMS_P2;Temp;Humidity;BMP_temperature;BMP_pressure;BME280_temperature;BME280_humidity;BME280_pressure;Samples;Min_cycle;Max_cycle;Signal;HPM_P1;HPM_P2
2023/01/26 00:00:53;;;;;;;85.50;62.38;;;-1.20;99.90;;;;;;4890774;29;20073;-76
2023/01/26 00:03:20;;;;;;;77.78;57.63;;;-1.20;99.90;;;;;;4892183;29;20037;-77
2023/01/26 00:05:46;;;;;;;77.53;61.38;;;-0.90;99.90;;;;;;4884873;29;20173;-77
2023/01/26 00:08:12;;;;;;;82.00;62.90;;;-1.20;99.90;;;;;;4873077;29;20111;-77
2023/01/26 00:10:40;;;;;;;77.63;59.95;;;-1.30;99.90;;;;;;4873142;29;20034;-76
2023/01/26 00:13:07;;;;;;;93.47;64.85;;;-1.30;99.90;;;;;;4871908;29;20040;-77
2023/01/26 00:15:34;;;;;;;74.85;57.45;;;-1.30;99.90;;;;;;4875754;29;20037;-78
2023/01/26 00:18:01;;;;;;;73.70;53.30;;;-1.30;99.90;;;;;;4890443;29;20036;-77
2023/01/26 00:20:28;;;;;;;70.85;55.42;;;-1.30;99.90;;;;;;4891436;29;20033;-77
2023/01/26 00:22:55;;;;;;;89.03;58.92;;;-1.30;99.90;;;;;;4890164;29;20041;-77
2023/01/26 00:25:21;;;;;;;94.97;61.47;;;-1.30;99.90;;;;;;4890192;29;20029;-77
2023/01/26 00:27:47;;;;;;;84.47;56.05;;;-1.30;99.90;;;;;;4891363;29;20037;-77
2023/01/26 00:30:13;;;;;;;75.55;58.45;;;-1.30;99.90;;;;;;4890133;29;20045;-77
2023/01/26 00:32:39;;;;;;;85.85;60.08;;;-1.30;99.90;;;;;;4874639;29;20107;-77
2023/01/26 00:35:05;;;;;;;85.88;55.45;;;-1.20;99.90;;;;;;4890825;29;20037;-77
2023/01/26 00:37:31;;;;;;;71.97;55.45;;;-1.30;99.90;;;;;;4891424;29;20033;-77
2023/01/26 00:39:57;;;;;;;83.57;58.88;;;-1.30;99.90;;;;;;4890120;29;20037;-77
2023/01/26 00:42:23;;;;;;;85.55;57.05;;;-1.30;99.90;;;;;;4889966;29;20056;-77
2023/01/26 00:44:49;;;;;;;80.10;57.88;;;-1.30;99.90;;;;;;4890035;29;20041;-77
2023/01/26 00:47:17;;;;;;;74.32;57.85;;;-1.30;99.90;;;;;;4890894;29;20057;-77
2023/01/26 00:49:43;;;;;;;78.68;56.55;;;-1.30;99.90;;;;;;4889875;29;20029;-77
2023/01/26 00:52:10;;;;;;;75.05;57.60;;;-1.30;99.90;;;;;;4889895;29;20025;-77
2023/01/26 00:54:36;;;;;;;89.43;60.97;;;-1.30;99.90;;;;;;4891474;29;20049;-77
2023/01/26 00:57:03;;;;;;;77.25;56.47;;;-1.30;99.90;;;;;;4874003;29;20029;-77
2023/01/26 00:59:31;;;;;;;79.05;55.53;;;-1.20;99.90;;;;;;4889735;29;20049;-77
2023/01/26 01:02:00;;;;;;;75.30;57.60;;;-1.20;99.90;;;;;;4890604;29;20070;-77
2023/01/26 01:04:25;;;;;;;78.72;55.97;;;-1.20;99.90;;;;;;4894390;29;20041;-77
2023/01/26 01:06:51;;;;;;;70.53;54.42;;;-1.20;99.90;;;;;;4893329;29;20101;-77
2023/01/26 01:09:17;;;;;;;83.15;59.90;;;-1.20;99.90;;;;;;4877227;29;20032;-76
2023/01/26 01:11:44;;;;;;;80.53;56.42;;;-1.10;99.90;;;;;;4863416;29;20037;-77
2023/01/26 01:14:12;;;;;;;66.82;52.45;;;-1.10;99.90;;;;;;4871342;29;20033;-77
2023/01/26 01:16:38;;;;;;;81.65;53.97;;;-1.10;99.90;;;;;;4857490;29;20034;-77
2023/01/26 01:19:04;;;;;;;77.72;54.50;;;-1.10;99.90;;;;;;4872102;29;20029;-78
2023/01/26 01:21:31;;;;;;;90.03;57.92;;;-1.20;99.90;;;;;;4874423;29;20067;-77
2023/01/26 01:23:58;;;;;;;72.05;50.17;;;-1.20;99.90;;;;;;4875791;29;20033;-76
2023/01/26 01:26:24;;;;;;;77.15;56.75;;;-1.20;99.90;;;;;;4874416;29;20390;-78
2023/01/26 01:28:54;;;;;;;75.43;53.80;;;-1.10;99.90;;;;;;4874164;29;20033;-76
2023/01/26 01:31:20;;;;;;;;;;;-1.10;99.90;;;;;;4874436;29;20022;-77
2023/01/26 01:33:46;;;;;;;84.28;54.65;;;-1.10;99.90;;;;;;4877424;29;19912;-77
2023/01/26 01:36:14;;;;;;;78.50;53.65;;;-1.10;99.90;;;;;;4874135;29;20442;-77
2023/01/26 01:38:42;;;;;;;74.80;54.92;;;-1.10;99.90;;;;;;4858979;29;20022;-78
2023/01/26 01:41:09;;;;;;;72.45;55.58;;;-1.00;99.90;;;;;;4873924;29;20040;-76
2023/01/26 01:43:35;;;;;;;69.05;51.63;;;-1.00;99.90;;;;;;4873985;29;20037;-78
2023/01/26 01:46:13;;;;;;;75.15;56.50;;;-1.00;99.90;;;;;;4875457;29;20061;-78
2023/01/26 01:48:42;;;;;;;70.95;50.60;;;-1.00;99.90;;;;;;4874225;29;20056;-77
2023/01/26 01:51:15;;;;;;;71.18;54.30;;;-1.00;99.90;;;;;;4858339;29;20033;-78
2023/01/26 01:53:45;;;;;;;64.70;48.83;;;-1.00;99.90;;;;;;4875018;29;20054;-77
2023/01/26 01:56:20;;;;;;;70.32;53.08;;;-1.00;99.90;;;;;;4873959;29;20039;-76
2023/01/26 01:58:49;;;;;;;70.80;53.65;;;-1.00;99.90;;;;;;4889490;29;20025;-77
2023/01/26 02:01:15;;;;;;;74.95;53.00;;;-1.00;99.90;;;;;;4876969;29;20044;-78
2023/01/26 02:03:46;;;;;;;77.15;53.78;;;-0.80;99.90;;;;;;4886612;29;20128;-78
2023/01/26 02:06:22;;;;;;;71.93;51.20;;;-1.00;99.90;;;;;;4873712;29;20061;-76
2023/01/26 02:08:51;;;;;;;77.88;50.42;;;-1.00;99.90;;;;;;4875083;29;20057;-76
2023/01/26 02:11:31;;;;;;;65.85;51.70;;;-1.00;99.90;;;;;;4873587;29;20026;-78
2023/01/26 02:14:05;;;;;;;64.80;50.45;;;-0.90;99.90;;;;;;4883465;29;20033;-76
2023/01/26 02:16:31;;;;;;;69.43;49.97;;;-0.90;99.90;;;;;;4887759;29;20033;-76
2023/01/26 02:18:58;;;;;;;69.40;48.50;;;-0.90;99.90;;;;;;4892097;29;20036;-77
2023/01/26 02:21:24;;;;;;;60.20;48.20;;;-0.90;99.90;;;;;;4891601;29;20021;-78
2023/01/26 02:23:59;;;;;;;62.25;47.15;;;-0.30;99.90;;;;;;4892049;29;20041;-78
2023/01/26 02:26:27;;;;;;;77.47;51.10;;;-0.90;99.90;;;;;;4839646;29;20037;-77
2023/01/26 02:28:54;;;;;;;56.58;43.75;;;-0.90;99.90;;;;;;4854889;29;20097;-77
2023/01/26 02:31:22;;;;;;;71.13;48.03;;;-0.90;99.90;;;;;;4871594;29;20068;-78
2023/01/26 02:33:48;;;;;;;67.80;52.42;;;-0.90;99.90;;;;;;4873125;29;20025;-78
2023/01/26 02:36:24;;;;;;;74.90;54.28;;;-0.80;99.90;;;;;;4873319;29;20036;-78
2023/01/26 02:39:11;;;;;;;67.80;46.83;;;-0.90;99.90;;;;;;4873227;29;20469;-78
2023/01/26 02:44:24;;;;;;;66.28;48.42;;;-0.80;99.90;;;;;;4873170;29;20088;-78
2023/01/26 02:46:51;;;;;;;62.53;47.42;;;-0.70;99.90;;;;;;4872969;29;20029;-78
2023/01/26 02:52:03;;;;;;;59.70;45.85;;;-0.70;99.90;;;;;;4873165;29;20469;-78
2023/01/26 02:57:13;;;;;;;64.50;48.45;;;-0.70;99.90;;;;;;4878369;29;20064;-78
2023/01/26 02:59:39;;;;;;;81.85;53.17;;;-0.50;99.90;;;;;;4878444;29;20054;-78
2023/01/26 03:02:06;;;;;;;68.80;47.80;;;-0.70;99.90;;;;;;4857467;29;20457;-78
2023/01/26 03:04:32;;;;;;;63.92;48.20;;;-0.80;99.90;;;;;;4857504;29;20026;-78
2023/01/26 03:06:58;;;;;;;65.93;47.10;;;-0.70;99.90;;;;;;4857231;29;20093;-78
2023/01/26 03:09:24;;;;;;;60.45;45.20;;;-0.70;99.90;;;;;;4882694;29;20048;-78
2023/01/26 03:11:50;;;;;;;68.03;53.05;;;-0.70;99.90;;;;;;4891241;29;20033;-77
2023/01/26 03:14:16;;;;;;;56.60;47.95;;;-0.70;99.90;;;;;;4891038;29;20041;-78
2023/01/26 03:16:42;;;;;;;58.35;44.20;;;-0.70;99.90;;;;;;4875775;29;20028;-78
2023/01/26 03:27:26;;;;;;;53.17;43.63;;;-0.60;99.90;;;;;;4872260;29;20034;-78
2023/01/26 03:29:54;;;;;;;63.70;43.42;;;-0.50;99.90;;;;;;4871931;29;20413;-79
2023/01/26 03:32:21;;;;;;;63.78;42.75;;;-0.50;99.90;;;;;;4872306;29;20027;-76
2023/01/26 03:34:47;;;;;;;58.72;44.67;;;-0.40;99.90;;;;;;4856875;29;20022;-77
2023/01/26 03:37:14;;;;;;;65.38;47.58;;;-0.50;99.90;;;;;;4872126;29;20058;-76
2023/01/26 03:56:23;;;;;;;52.88;39.92;;;-0.40;99.90;;;;;;4890643;29;20108;-78
2023/01/26 03:58:55;;;;;;;62.08;40.55;;;-0.40;99.90;;;;;;4886131;29;20046;-78
2023/01/26 04:01:26;;;;;;;56.13;42.00;;;-0.40;99.90;;;;;;4871988;29;21016;-78
2023/01/26 04:09:27;;;;;;;49.30;38.92;;;-0.20;99.90;;;;;;4875198;29;20048;-78
2023/01/26 04:11:54;;;;;;;61.83;41.42;;;-0.20;99.90;;;;;;4871876;29;20024;-78
2023/01/26 04:22:44;;;;;;;53.38;41.60;;;-0.30;99.90;;;;;;4871960;29;20037;-78
2023/01/26 04:25:14;;;;;;;55.95;42.40;;;-0.30;99.90;;;;;;4871874;29;20093;-78
2023/01/26 04:27:40;;;;;;;58.88;40.58;;;-0.30;99.90;;;;;;4871648;29;20060;-77
2023/01/26 04:30:10;;;;;;;64.68;46.83;;;-0.30;99.90;;;;;;4871565;29;20041;-78
2023/01/26 04:32:36;;;;;;;61.85;39.60;;;-0.30;99.90;;;;;;4871831;29;20033;-78
2023/01/26 04:35:03;;;;;;;58.80;44.42;;;-0.20;99.90;;;;;;4871679;29;20034;-78
2023/01/26 04:37:31;;;;;;;59.28;40.53;;;-0.30;99.90;;;;;;4856799;29;20037;-77
2023/01/26 04:39:57;;;;;;;62.05;40.53;;;-0.20;99.90;;;;;;4875414;29;20496;-76
2023/01/26 04:42:26;;;;;;;55.05;40.92;;;-0.20;99.90;;;;;;4875033;29;20594;-77
2023/01/26 04:44:52;;;;;;;56.95;41.60;;;-0.20;99.90;;;;;;4860393;29;20382;-77
2023/01/26 04:47:20;;;;;;;53.30;38.40;;;-0.20;99.90;;;;;;4875408;29;20037;-77
2023/01/26 04:49:46;;;;;;;57.13;40.88;;;-0.20;99.90;;;;;;4874966;29;20038;-77
2023/01/26 04:52:14;;;;;;;65.15;44.28;;;0.30;99.90;;;;;;4874827;29;20040;-77
2023/01/26 04:54:40;;;;;;;59.88;41.40;;;-0.10;99.90;;;;;;4875046;29;20030;-77
2023/01/26 04:57:08;;;;;;;58.58;42.88;;;-0.10;99.90;;;;;;4875081;29;20033;-77
2023/01/26 04:59:35;;;;;;;56.85;40.20;;;-0.10;99.90;;;;;;4882253;29;20085;-77
2023/01/26 05:02:01;;;;;;;58.00;40.15;;;-0.10;99.90;;;;;;4875111;29;20127;-76
2023/01/26 05:04:27;;;;;;;50.70;39.92;;;0.00;99.90;;;;;;4859393;29;20041;-77
2023/01/26 05:06:53;;;;;;;47.40;36.03;;;0.00;99.90;;;;;;4859417;29;20032;-77
2023/01/26 05:09:22;;;;;;;48.58;38.30;;;0.00;99.90;;;;;;4880793;29;20068;-76
2023/01/26 05:12:32;;;;;;;59.63;40.80;;;0.30;99.90;;;;;;4865745;29;20100;-77
2023/01/26 05:15:06;;;;;;;52.55;36.88;;;0.70;99.90;;;;;;4893974;29;20033;-77
2023/01/26 05:17:58;;;;;;;40.67;29.50;;;-0.10;99.90;;;;;;4901748;29;20041;-77
2023/01/26 05:20:38;;;;;;;52.67;37.13;;;-0.20;99.90;;;;;;4894103;29;20460;-77
2023/01/26 05:23:15;;;;;;;59.72;37.67;;;-0.10;99.90;;;;;;4879367;29;20045;-77
2023/01/26 05:26:00;;;;;;;56.30;35.92;;;-0.10;99.90;;;;;;4894423;29;20043;-77
2023/01/26 05:28:27;;;;;;;47.53;35.20;;;-0.10;99.90;;;;;;4892935;29;20068;-77
2023/01/26 05:30:53;;;;;;;58.30;38.58;;;0.10;99.90;;;;;;4861813;29;20036;-77
2023/01/26 05:33:21;;;;;;;45.42;32.95;;;0.00;99.90;;;;;;4893233;29;20029;-77
2023/01/26 05:35:48;;;;;;;48.75;34.78;;;0.00;99.90;;;;;;4892816;29;20032;-78
2023/01/26 05:38:15;;;;;;;64.90;38.80;;;0.70;99.90;;;;;;4892783;29;20029;-77
2023/01/26 05:40:41;;;;;;;51.10;35.55;;;0.00;99.90;;;;;;4875360;29;20052;-78
2023/01/26 05:43:07;;;;;;;51.20;36.35;;;0.00;99.90;;;;;;4892724;29;20033;-77
2023/01/26 05:45:50;;;;;;;50.60;36.92;;;0.00;99.90;;;;;;4892713;29;20066;-77
2023/01/26 05:48:16;;;;;;;48.30;34.03;;;0.60;99.90;;;;;;4877316;29;20100;-77
2023/01/26 05:50:44;;;;;;;50.00;35.80;;;0.80;99.90;;;;;;4881273;29;20030;-78
2023/01/26 05:53:15;;;;;;;52.30;36.75;;;0.10;99.90;;;;;;4874203;29;20033;-77
2023/01/26 05:55:41;;;;;;;51.35;36.03;;;0.10;99.90;;;;;;4873899;29;20040;-77
2023/01/26 05:58:08;;;;;;;47.22;35.20;;;0.10;99.90;;;;;;4875218;29;20033;-77
2023/01/26 06:00:34;;;;;;;54.08;33.33;;;0.20;99.90;;;;;;4858802;29;20088;-77
2023/01/26 06:03:06;;;;;;;52.75;37.13;;;0.10;99.90;;;;;;4844377;29;20405;-77
2023/01/26 06:05:32;;;;;;;54.25;36.88;;;0.90;99.90;;;;;;4873494;29;20029;-77
2023/01/26 06:08:03;;;;;;;45.25;35.58;;;0.30;99.90;;;;;;4858690;29;20034;-77
2023/01/26 06:10:36;;;;;;;53.47;35.95;;;0.20;99.90;;;;;;4859020;29;20045;-77
2023/01/26 06:13:17;;;;;;;50.63;32.78;;;0.70;99.90;;;;;;4870429;29;20042;-77
2023/01/26 06:15:47;;;;;;;;;;;0.80;99.90;;;;;;4863433;29;20123;-77
2023/01/26 06:18:14;;;;;;;48.42;32.20;;;0.20;99.90;;;;;;4871563;29;20388;-76
2023/01/26 06:20:46;;;;;;;43.33;28.33;;;0.20;99.90;;;;;;4873298;29;20030;-77
2023/01/26 06:23:13;;;;;;;46.35;32.35;;;0.20;99.90;;;;;;4872950;29;20034;-77
2023/01/26 06:25:39;;;;;;;49.03;32.72;;;0.20;99.90;;;;;;4873095;29;20032;-77
2023/01/26 06:28:06;;;;;;;42.42;31.10;;;0.20;99.90;;;;;;4872984;29;20097;-77
2023/01/26 06:30:33;;;;;;;49.65;34.10;;;0.30;99.90;;;;;;4872978;29;20112;-77
2023/01/26 06:33:01;;;;;;;40.10;31.75;;;0.30;99.90;;;;;;4857573;29;20022;-77
2023/01/26 06:35:28;;;;;;;47.65;31.45;;;0.20;99.90;;;;;;4872792;29;20077;-77
2023/01/26 06:37:57;;;;;;;47.00;32.30;;;0.50;99.90;;;;;;4872825;29;20105;-77
2023/01/26 06:40:23;;;;;;;42.47;31.05;;;0.20;99.90;;;;;;4872790;29;20025;-77
2023/01/26 06:42:50;;;;;;;41.85;29.85;;;0.30;99.90;;;;;;4873024;29;20033;-77
2023/01/26 06:45:23;;;;;;;48.60;34.88;;;0.30;99.90;;;;;;4872630;29;20037;-78
2023/01/26 06:47:55;;;;;;;49.20;33.63;;;0.20;99.90;;;;;;4859471;29;20030;-77
2023/01/26 06:50:25;;;;;;;42.45;32.90;;;0.30;99.90;;;;;;4860050;29;20038;-77
2023/01/26 06:52:55;;;;;;;57.10;32.75;;;0.30;99.90;;;;;;4859392;29;20105;-78
2023/01/26 06:55:48;;;;;;;50.38;34.20;;;0.30;99.90;;;;;;4859720;29;20042;-78
2023/01/26 06:58:43;;;;;;;67.32;57.30;;;0.30;99.90;;;;;;4871109;29;20046;-77
2023/01/26 07:01:25;;;;;;;50.45;36.17;;;0.30;99.90;;;;;;4859165;29;20086;-80
2023/01/26 07:03:53;;;;;;;43.55;33.38;;;0.30;99.90;;;;;;4866546;29;20053;-77
2023/01/26 07:06:19;;;;;;;49.42;32.45;;;0.30;99.90;;;;;;4896073;29;20040;-79
2023/01/26 07:08:45;;;;;;;47.35;34.55;;;0.30;99.90;;;;;;4896099;29;20065;-79
2023/01/26 07:11:11;;;;;;;49.33;32.15;;;0.30;99.90;;;;;;4896746;29;20041;-77
2023/01/26 07:13:38;;;;;;;47.08;33.90;;;0.30;99.90;;;;;;4895086;29;20448;-77
2023/01/26 07:16:06;;;;;;;41.58;31.73;;;0.30;99.90;;;;;;4876622;29;20045;-76
2023/01/26 07:18:33;;;;;;;39.78;29.10;;;0.40;99.90;;;;;;4875338;29;20096;-79
2023/01/26 07:21:10;;;;;;;48.50;31.42;;;0.40;99.90;;;;;;4877786;29;20090;-79
2023/01/26 07:23:36;;;;;;;35.00;27.13;;;0.40;99.90;;;;;;4878218;29;20080;-79
2023/01/26 07:26:03;;;;;;;39.22;30.13;;;0.40;99.90;;;;;;4861795;29;20041;-79
2023/01/26 07:28:29;;;;;;;35.85;28.40;;;0.40;99.90;;;;;;4876832;29;20037;-79
2023/01/26 07:30:59;;;;;;;43.13;31.90;;;0.40;99.90;;;;;;4875603;29;20251;-78
2023/01/26 07:33:27;;;;;;;33.85;28.15;;;0.40;99.90;;;;;;4878071;29;20038;-78
2023/01/26 07:35:53;;;;;;;41.45;32.70;;;0.40;99.90;;;;;;4890014;29;20025;-79
2023/01/26 07:38:20;;;;;;;47.83;32.53;;;0.40;99.90;;;;;;4895121;29;20053;-80
2023/01/26 07:40:45;;;;;;;45.20;32.80;;;0.40;99.90;;;;;;4894637;29;20037;-79
2023/01/26 07:43:13;;;;;;;49.10;30.95;;;0.40;99.90;;;;;;4896224;29;20041;-77
2023/01/26 07:45:52;;;;;;;38.58;30.10;;;0.50;99.90;;;;;;4860672;29;20102;-80
2023/01/26 07:48:22;;;;;;;38.85;27.65;;;0.60;99.90;;;;;;4858128;29;20478;-77
2023/01/26 07:50:48;;;;;;;41.45;29.40;;;0.50;99.90;;;;;;4858628;29;20036;-77
2023/01/26 07:53:18;;;;;;;47.63;30.70;;;0.50;99.90;;;;;;4856695;29;20026;-79
2023/01/26 07:55:44;;;;;;;42.50;33.13;;;0.50;99.90;;;;;;4886052;29;20041;-77
2023/01/26 07:58:11;;;;;;;42.58;28.92;;;0.50;99.90;;;;;;4892068;29;20033;-79
2023/01/26 08:00:37;;;;;;;41.85;26.83;;;0.60;99.90;;;;;;4891650;29;20064;-79
2023/01/26 08:03:03;;;;;;;38.97;28.13;;;0.60;99.90;;;;;;4894777;29;20056;-76
2023/01/26 08:05:30;;;;;;;40.05;27.58;;;0.60;99.90;;;;;;4892867;29;20040;-77
2023/01/26 08:07:58;;;;;;;39.60;25.63;;;0.60;99.90;;;;;;4893549;29;20049;-77
2023/01/26 08:10:24;;;;;;;44.20;30.13;;;0.70;99.90;;;;;;4894404;29;20040;-77
2023/01/26 08:12:50;;;;;;;39.17;27.17;;;0.60;99.90;;;;;;4894136;29;20037;-77
2023/01/26 08:15:16;;;;;;;43.95;31.80;;;0.60;99.90;;;;;;4895657;29;20037;-77
2023/01/26 08:17:42;;;;;;;45.05;28.52;;;0.60;99.90;;;;;;4897049;29;20033;-77
2023/01/26 08:20:09;;;;;;;40.67;27.58;;;0.70;99.90;;;;;;4898556;29;20037;-77
2023/01/26 08:22:34;;;;;;;42.28;30.00;;;0.70;99.90;;;;;;4896432;29;20041;-77
2023/01/26 08:25:00;;;;;;;46.85;30.55;;;0.70;99.90;;;;;;4896516;29;20119;-77
2023/01/26 08:27:26;;;;;;;37.28;27.95;;;0.80;99.90;;;;;;4881380;29;20067;-78
2023/01/26 08:29:52;;;;;;;38.97;26.17;;;0.80;99.90;;;;;;4897637;29;20112;-77
2023/01/26 08:32:17;;;;;;;47.35;27.73;;;0.80;99.90;;;;;;4898100;29;20039;-77
2023/01/26 08:34:43;;;;;;;44.33;29.33;;;0.90;99.90;;;;;;4899035;29;20025;-76
2023/01/26 08:37:09;;;;;;;42.47;29.25;;;0.90;99.90;;;;;;4902507;29;20052;-79
2023/01/26 08:39:35;;;;;;;47.67;33.22;;;0.90;99.90;;;;;;4903697;29;20037;-79
2023/01/26 08:42:00;;;;;;;38.45;26.73;;;0.90;99.90;;;;;;4905073;29;20037;-78
2023/01/26 08:44:26;;;;;;;33.28;25.35;;;0.80;99.90;;;;;;4903128;29;20054;-77
2023/01/26 08:46:52;;;;;;;39.80;28.98;;;0.80;99.90;;;;;;4886482;29;20018;-77
2023/01/26 08:49:18;;;;;;;44.63;30.20;;;0.80;99.90;;;;;;4885865;29;20017;-78
2023/01/26 08:51:44;;;;;;;41.55;27.58;;;0.80;99.90;;;;;;4887266;29;20058;-78
2023/01/26 08:54:09;;;;;;;48.60;27.80;;;0.80;99.90;;;;;;4885486;29;20026;-78
2023/01/26 08:56:35;;;;;;;37.42;28.38;;;0.90;99.90;;;;;;4889045;29;20041;-77
2023/01/26 08:59:02;;;;;;;40.20;27.25;;;0.90;99.90;;;;;;4895203;29;20041;-78
2023/01/26 09:01:28;;;;;;;34.25;24.42;;;0.90;99.90;;;;;;4897502;29;20036;-77
2023/01/26 09:03:55;;;;;;;32.25;25.88;;;1.00;99.90;;;;;;4903044;29;20017;-77
2023/01/26 09:06:21;;;;;;;33.92;28.33;;;0.90;99.90;;;;;;4906148;29;20033;-77
2023/01/26 09:08:47;;;;;;;40.22;28.25;;;1.00;99.90;;;;;;4905704;29;20042;-77
2023/01/26 09:11:13;;;;;;;34.15;24.92;;;1.00;99.90;;;;;;4905539;29;20045;-78
2023/01/26 09:13:39;;;;;;;32.13;22.00;;;1.10;99.90;;;;;;4890737;29;20029;-78
2023/01/26 09:16:07;;;;;;;29.83;21.98;;;1.20;99.90;;;;;;4906903;29;20017;-78
2023/01/26 09:18:33;;;;;;;29.77;24.23;;;1.20;99.90;;;;;;4893727;29;20089;-80
2023/01/26 09:21:06;;;;;;;27.60;21.95;;;1.20;99.90;;;;;;4886863;29;20057;-78
2023/01/26 09:23:33;;;;;;;27.90;23.65;;;1.30;99.90;;;;;;4886426;29;20033;-78
2023/01/26 09:25:59;;;;;;;27.73;22.88;;;1.20;99.90;;;;;;4887767;29;20032;-78
2023/01/26 09:28:25;;;;;;;26.40;20.40;;;1.30;99.90;;;;;;4886192;29;20013;-80
2023/01/26 09:30:50;;;;;;;28.33;21.63;;;1.30;99.90;;;;;;4886184;29;20018;-79
2023/01/26 09:33:16;;;;;;;34.83;25.35;;;1.20;99.90;;;;;;4886701;29;20040;-80
2023/01/26 09:35:42;;;;;;;24.20;19.75;;;1.30;99.90;;;;;;4886117;29;20034;-79
2023/01/26 09:38:08;;;;;;;28.33;20.35;;;1.30;99.90;;;;;;4893075;29;20029;-80
2023/01/26 09:41:15;;;;;;;23.88;20.95;;;1.30;99.90;;;;;;4887558;29;20041;-80
2023/01/26 09:43:56;;;;;;;31.08;21.10;;;1.40;99.90;;;;;;4905366;29;20046;-80
2023/01/26 09:46:36;;;;;;;27.10;22.17;;;1.40;99.90;;;;;;4894948;29;20137;-80
2023/01/26 09:49:14;;;;;;;49.03;31.17;;;1.50;99.90;;;;;;4883128;29;20041;-79
2023/01/26 09:52:01;;;;;;;27.20;22.02;;;1.60;99.90;;;;;;4883929;29;20044;-79
2023/01/26 09:54:48;;;;;;;29.55;18.48;;;1.70;99.90;;;;;;4883237;29;20033;-79
2023/01/26 09:57:31;;;;;;;29.40;19.45;;;1.70;99.90;;;;;;4900621;29;20020;-80
2023/01/26 10:00:23;;;;;;;27.58;18.65;;;1.70;99.90;;;;;;4901879;29;20029;-77
2023/01/26 10:03:14;;;;;;;20.35;16.42;;;1.80;99.90;;;;;;4899636;29;20081;-79
2023/01/26 10:05:50;;;;;;;21.17;16.08;;;1.70;99.90;;;;;;4890496;29;20053;-79
2023/01/26 10:08:36;;;;;;;20.80;17.23;;;1.80;99.90;;;;;;4881865;29;20047;-80
2023/01/26 10:11:06;;;;;;;27.67;17.52;;;1.70;99.90;;;;;;4882257;29;20079;-79
2023/01/26 10:13:33;;;;;;;19.17;17.17;;;1.80;99.90;;;;;;4881133;29;20045;-79
2023/01/26 10:16:07;;;;;;;20.15;16.35;;;1.90;99.90;;;;;;4892633;29;20093;-79
2023/01/26 10:18:59;;;;;;;25.10;18.55;;;1.90;99.90;;;;;;4899397;29;20080;-79
2023/01/26 10:21:30;;;;;;;30.55;17.23;;;2.00;99.90;;;;;;4900071;29;20120;-79
2023/01/26 10:23:59;;;;;;;26.10;15.68;;;2.00;99.90;;;;;;4898530;29;20048;-79
2023/01/26 10:26:30;;;;;;;32.45;18.45;;;2.10;99.90;;;;;;4882047;29;20048;-79
2023/01/26 10:28:56;;;;;;;24.48;17.58;;;2.10;99.90;;;;;;4876369;29;20062;-78
2023/01/26 10:31:29;;;;;;;24.92;16.55;;;2.10;99.90;;;;;;4881009;29;20068;-79
2023/01/26 10:34:09;;;;;;;33.80;19.20;;;2.10;99.90;;;;;;4879651;29;20061;-78
2023/01/26 10:36:35;;;;;;;27.15;16.75;;;2.10;99.90;;;;;;4879896;29;20056;-78
2023/01/26 10:39:07;;;;;;;28.77;16.55;;;2.10;99.90;;;;;;4877454;29;20040;-79
2023/01/26 10:41:34;;;;;;;19.33;14.00;;;2.20;99.90;;;;;;4864597;29;20037;-78
2023/01/26 10:44:21;;;;;;;24.90;18.08;;;2.10;99.90;;;;;;4879456;29;20114;-79
2023/01/26 10:47:02;;;;;;;34.05;17.15;;;2.10;99.90;;;;;;4895253;29;20060;-76
2023/01/26 10:49:28;;;;;;;28.30;17.50;;;2.20;99.90;;;;;;4897490;29;20496;-79
2023/01/26 10:52:13;;;;;;;24.85;18.90;;;2.20;99.90;;;;;;4898117;29;20024;-79
2023/01/26 10:54:42;;;;;;;27.70;16.63;;;2.10;99.90;;;;;;4895588;29;20421;-79
2023/01/26 10:57:29;;;;;;;19.23;13.18;;;2.10;99.90;;;;;;4893503;29;20033;-79
2023/01/26 11:00:06;;;;;;;25.65;17.13;;;2.10;99.90;;;;;;4896437;29;20053;-79
2023/01/26 11:02:34;;;;;;;19.98;17.67;;;2.10;99.90;;;;;;4897167;29;20499;-79
2023/01/26 11:05:05;;;;;;;25.35;16.08;;;2.00;99.90;;;;;;4895951;29;20041;-79
2023/01/26 11:07:40;;;;;;;24.02;18.75;;;2.00;99.90;;;;;;4896217;29;20037;-79
2023/01/26 11:10:15;;;;;;;21.33;16.13;;;1.90;99.90;;;;;;4896778;29;20100;-79
2023/01/26 11:12:41;;;;;;;26.58;17.05;;;2.00;99.90;;;;;;4881465;29;20044;-79
2023/01/26 11:15:19;;;;;;;29.83;19.13;;;2.00;99.90;;;;;;4878639;29;20029;-79
2023/01/26 11:18:01;;;;;;;26.90;18.55;;;2.00;99.90;;;;;;4878998;29;20099;-79
2023/01/26 11:21:04;;;;;;;32.42;22.40;;;2.00;99.90;;;;;;4877390;29;20037;-79
2023/01/26 11:23:52;;;;;;;29.38;21.33;;;2.10;99.90;;;;;;4876917;29;20053;-79
2023/01/26 11:26:36;;;;;;;27.02;20.40;;;2.10;99.90;;;;;;4888451;29;20517;-79
2023/01/26 11:29:36;;;;;;;32.72;23.55;;;2.10;99.90;;;;;;4879106;29;20089;-79
2023/01/26 11:32:08;;;;;;;;;;;2.10;99.90;;;;;;4896659;29;20044;-76
2023/01/26 11:34:40;;;;;;;38.58;21.33;;;2.00;99.90;;;;;;4894005;29;19939;-79
2023/01/26 11:37:28;;;;;;;28.77;22.00;;;2.10;99.90;;;;;;4893018;29;20424;-78
2023/01/26 11:40:32;;;;;;;37.05;21.65;;;2.10;99.90;;;;;;4896508;29;20029;-79
2023/01/26 11:43:19;;;;;;;39.80;21.55;;;2.10;99.90;;;;;;4894711;29;20033;-79
2023/01/26 11:46:11;;;;;;;38.65;21.02;;;2.10;99.90;;;;;;4888885;29;20025;-79
2023/01/26 11:49:33;;;;;;;48.47;28.42;;;2.10;99.90;;;;;;4877155;29;20061;-79
2023/01/26 11:52:22;;;;;;;39.55;22.35;;;2.10;99.90;;;;;;4875562;29;20072;-79
2023/01/26 11:54:51;;;;;;;44.00;25.67;;;2.20;99.90;;;;;;4875334;29;20036;-78
2023/01/26 11:57:39;;;;;;;45.28;23.88;;;2.20;99.90;;;;;;4881476;29;20037;-78
2023/01/26 12:00:14;;;;;;;28.00;23.23;;;2.20;99.90;;;;;;4882718;29;20093;-78
2023/01/26 12:02:42;;;;;;;46.60;27.63;;;2.30;99.90;;;;;;4882736;29;20034;-78
2023/01/26 12:05:21;;;;;;;42.83;29.05;;;2.30;99.90;;;;;;4884145;29;20038;-79
2023/01/26 12:08:03;;;;;;;31.52;22.27;;;2.50;99.90;;;;;;4883062;29;20018;-78
2023/01/26 12:10:49;;;;;;;40.80;25.67;;;2.50;99.90;;;;;;4912270;29;20044;-79
2023/01/26 12:13:37;;;;;;;41.45;24.65;;;2.60;99.90;;;;;;4883675;29;20034;-79
2023/01/26 12:16:15;;;;;;;43.15;28.45;;;2.70;99.90;;;;;;4885043;29;20053;-78
2023/01/26 12:18:50;;;;;;;43.55;23.50;;;2.80;99.90;;;;;;4900446;29;20028;-78
2023/01/26 12:21:18;;;;;;;34.70;23.70;;;2.80;99.90;;;;;;4901997;29;20093;-78
2023/01/26 12:24:01;;;;;;;45.35;28.83;;;2.80;99.90;;;;;;4902485;29;20056;-78
2023/01/26 12:26:40;;;;;;;38.67;24.52;;;2.80;99.90;;;;;;4902132;29;20045;-78
2023/01/26 12:29:23;;;;;;;39.33;27.67;;;2.90;99.90;;;;;;4864897;29;20044;-78
2023/01/26 12:31:54;;;;;;;47.67;28.58;;;3.00;99.90;;;;;;4863423;29;20056;-78
2023/01/26 12:34:27;;;;;;;61.03;31.02;;;3.10;99.90;;;;;;4864259;29;20039;-78
2023/01/26 12:37:11;;;;;;;35.40;25.77;;;3.20;99.90;;;;;;4866671;29;20045;-78
2023/01/26 12:39:47;;;;;;;38.72;26.73;;;3.30;99.90;;;;;;4885904;29;20033;-78
2023/01/26 12:42:38;;;;;;;46.42;27.98;;;3.30;99.90;;;;;;4895358;29;20054;-78
2023/01/26 12:45:13;;;;;;;42.85;29.70;;;3.50;99.90;;;;;;4875863;29;20037;-78
2023/01/26 12:47:42;;;;;;;37.95;24.00;;;3.50;99.90;;;;;;4880953;29;20048;-78
2023/01/26 12:50:12;;;;;;;33.97;19.25;;;3.50;99.90;;;;;;4878321;29;20055;-78
2023/01/26 12:53:05;;;;;;;35.03;20.58;;;3.60;99.90;;;;;;4879830;29;20029;-79
2023/01/26 12:55:33;;;;;;;40.33;24.70;;;3.70;99.90;;;;;;4911668;29;20017;-78
2023/01/26 12:58:09;;;;;;;51.70;29.08;;;3.80;99.90;;;;;;4881122;29;20030;-78
2023/01/26 13:00:37;;;;;;;44.67;23.73;;;3.80;99.90;;;;;;4884195;29;20046;-78
2023/01/26 13:03:21;;;;;;;47.15;28.52;;;3.80;99.90;;;;;;4884177;29;20024;-78
2023/01/26 13:06:24;;;;;;;44.17;23.23;;;3.90;99.90;;;;;;4895034;29;20040;-78
2023/01/26 13:09:19;;;;;;;34.53;25.90;;;4.00;99.90;;;;;;4864923;29;20026;-78
2023/01/26 13:11:46;;;;;;;42.70;26.55;;;4.10;99.90;;;;;;4863251;29;20066;-80
2023/01/26 13:14:41;;;;;;;32.30;22.52;;;4.20;99.90;;;;;;4860766;29;20030;-80
2023/01/26 13:17:27;;;;;;;51.65;23.80;;;4.30;99.90;;;;;;4844441;29;20038;-78
2023/01/26 13:19:58;;;;;;;51.88;26.60;;;4.40;99.90;;;;;;4869123;29;20050;-78
2023/01/26 13:22:24;;;;;;;46.08;24.30;;;4.60;99.90;;;;;;4861784;29;20371;-79
2023/01/26 13:25:11;;;;;;;38.70;25.40;;;4.70;99.90;;;;;;4876908;29;20033;-78
2023/01/26 13:27:37;;;;;;;36.80;23.85;;;4.70;99.90;;;;;;4876917;29;20084;-79
2023/01/26 13:30:25;;;;;;;37.25;30.20;;;4.80;99.90;;;;;;4875157;29;20033;-79
2023/01/26 13:33:01;;;;;;;50.63;30.15;;;4.80;99.90;;;;;;4876500;29;20045;-79
2023/01/26 13:35:29;;;;;;;57.45;33.30;;;4.90;99.90;;;;;;4877650;29;20036;-79
2023/01/26 13:38:09;;;;;;;48.05;39.63;;;4.90;99.90;;;;;;4877175;29;20081;-79
2023/01/26 13:40:38;;;;;;;47.50;31.73;;;5.00;99.90;;;;;;4908627;29;20038;-78
2023/01/26 13:43:12;;;;;;;49.20;25.90;;;5.10;99.90;;;;;;4884197;29;20106;-80